Airfield :
LOGIN :

Register | Disclaimer

   EN    FR    IT 

 










Legend :    VFR   Marginal VFR   IFR   Intensive IFR   Very Intensive IFR
Visi :
Ceiling :
>= 8 km
>= 3000ft
5 to 8 km
1000 to 3000 ft
1500m to 5 km
500 to 1000 ft
800 to 1500m
200 to 500 ft
< 800m
< 200 ft
Symbols :   Thunderstorms  Fog  Heavy snow  Heavy precipitations  Wind > 20 kt
SIGMETs :     Misc.  Thunderstorms  Icing  Turbulence  Mountain Waves  Volcanic Ashes







- Airport Elevation : 939 ft


LKKB - Kbely Air Base

CURRENT METAR :
  • 260000Z 28005KT 9999 FEW021 BKN049 03/M01 Q1021

EXPIRED METARs :
  • 252300Z 28006KT 9999 FEW019 BKN022 04/M01 Q1021
  • 252200Z 32010KT 290V350 9999 FEW017 BKN023 04/M01 Q1020

TAF TAF LKKB
Valid from the 26 at 00:00 until the 27 at 00:00 UTC


252300Z 2600/2700 30006KT 9999 BKN020
PROB40 2603/2607 6000 NSC
BECMG 2608/2610 30014G24KT BKN035
BECMG 2617/2621 30006KT FEW020 BKN045
TEMPO 2620/2700 7000 RA BKN018 OVC030
No reported NOTAMs for that airfield.
1 SIGMET reported for the Praha FIR (LKAA) :
 
Severe turbulence
LKAA SIGMET 2 VALID 252240/260100 LKPW
LKAA PRAHA FIR SEV TURB FCST SE OF LINE N4857 E01521 - N4932 E01857 FL140/240 STNR WKN=



MET'MAP, your aeronautical weather chart ! - Copyright ORBIFLY December 2007 - Disclaimer

ORBIFLY MET'MAP TEAM :

Programming & Development : Alexandra Zaïnal
Concept & Development : Baudouin d'Aumeries
Co-Development & Prog : Marc-Olivier Méhu
Technical & hardware support : Manuel Goepfert

Contact : metmap@orbifly.com




SOURCES & CREDITS :

   NOAA